Sayre, Pennsylvania
Current Conditions -  °F | °C
As of 10:53 PM on Sunday 25 Jan 2015 (Local Time) from KELM Reporting Station
Clear Clear  
Wind Chill:   Ceiling: Unl
Heat Index: 15°   Visibility: 10mi
Dew Point:   Wind: 12mph
Humidity: 74%   Direction: 60°ENE
Pressure: 30"   Gusts: NA
Location:  41.99°N, 76.53°W
Report Text: KELM 260353Z AUTO 06010KT 10SM CLR M09/M13 A3000 RMK AO2 SLP174 T10941133
Loading
Personal Weather Stations






























Interactive Weather Map New forecast layout! Learn more

10-Day Weather Forecast

Advertisements
Track Severe Weather on mobile